createdAt,value
2022-12-26T00:01:07.984Z,3.80
2022-12-26T00:03:35.836Z,3.30
2022-12-26T00:06:06.165Z,3.47
2022-12-26T00:08:36.216Z,3.77
2022-12-26T00:11:03.835Z,3.67
2022-12-26T00:13:38.140Z,3.50
2022-12-26T00:16:11.180Z,3.23
2022-12-26T00:18:39.036Z,3.30
2022-12-26T00:21:07.135Z,3.70
2022-12-26T00:23:36.665Z,3.70
2022-12-26T00:26:05.170Z,4.17
2022-12-26T00:28:32.864Z,3.43
2022-12-26T00:31:01.300Z,3.43
2022-12-26T00:33:28.965Z,3.67
2022-12-26T00:36:02.000Z,3.20
2022-12-26T00:38:29.766Z,3.67
2022-12-26T00:40:58.915Z,3.50
2022-12-26T00:43:26.557Z,3.60
2022-12-26T00:45:54.437Z,3.30
2022-12-26T00:48:22.056Z,3.47
2022-12-26T00:50:49.788Z,11.73
2022-12-26T00:53:17.510Z,8.97
2022-12-26T00:55:45.297Z,8.57
2022-12-26T00:58:14.311Z,4.23
2022-12-26T01:00:42.408Z,3.70
2022-12-26T01:03:11.744Z,3.57
2022-12-26T01:05:42.314Z,3.77
2022-12-26T01:08:19.708Z,3.73
2022-12-26T01:10:51.557Z,3.30
2022-12-26T01:13:20.585Z,3.57
2022-12-26T01:15:50.016Z,3.40
2022-12-26T01:18:17.819Z,4.17
2022-12-26T01:20:45.516Z,3.17
2022-12-26T01:23:13.107Z,3.83
2022-12-26T01:26:18.728Z,3.50
2022-12-26T01:28:29.934Z,3.43
2022-12-26T01:31:02.271Z,3.60
2022-12-26T01:33:29.860Z,3.80
2022-12-26T01:35:57.623Z,3.87
2022-12-26T01:38:25.312Z,3.80
2022-12-26T01:41:13.417Z,4.10
2022-12-26T01:43:55.401Z,3.13
2022-12-26T01:46:26.816Z,3.30
2022-12-26T01:48:55.420Z,3.53
2022-12-26T01:51:24.838Z,3.07
2022-12-26T01:53:56.450Z,3.43
2022-12-26T01:56:46.573Z,3.23
2022-12-26T01:59:18.691Z,3.10
2022-12-26T02:01:47.199Z,3.57
2022-12-26T02:04:36.217Z,3.47
2022-12-26T02:07:05.414Z,3.13
2022-12-26T02:09:33.643Z,3.03
2022-12-26T02:12:34.323Z,3.03
2022-12-26T02:14:52.876Z,3.27
2022-12-26T02:17:20.639Z,3.57
2022-12-26T02:19:53.331Z,3.27
2022-12-26T02:22:33.852Z,3.00
2022-12-26T02:25:13.473Z,3.33
2022-12-26T02:28:19.595Z,3.27
2022-12-26T02:30:51.690Z,3.83
2022-12-26T02:33:33.818Z,3.27
2022-12-26T02:36:12.833Z,3.33
2022-12-26T02:38:48.039Z,3.07
2022-12-26T02:41:25.182Z,3.53
2022-12-26T02:44:21.801Z,3.90
2022-12-26T02:47:08.327Z,3.27
2022-12-26T02:50:04.048Z,2.90
2022-12-26T02:52:55.402Z,3.33
2022-12-26T02:55:43.661Z,2.83
2022-12-26T02:58:36.560Z,3.10
2022-12-26T03:01:25.386Z,3.20
2022-12-26T03:04:13.786Z,3.07
2022-12-26T03:07:00.706Z,2.60
2022-12-26T03:09:48.466Z,3.10
2022-12-26T03:12:45.893Z,2.60
2022-12-26T03:15:16.710Z,2.50
2022-12-26T03:17:45.352Z,3.00
2022-12-26T03:20:18.015Z,2.90
2022-12-26T03:22:47.927Z,2.40
2022-12-26T03:25:38.125Z,2.93
2022-12-26T03:28:05.973Z,2.80
2022-12-26T03:30:51.205Z,3.20
2022-12-26T03:33:39.460Z,3.20
2022-12-26T03:36:11.835Z,3.13
2022-12-26T03:38:51.348Z,2.73
2022-12-26T03:41:43.949Z,2.87
2022-12-26T03:44:38.917Z,2.87
2022-12-26T03:47:32.411Z,2.93
2022-12-26T03:50:22.245Z,3.13
2022-12-26T03:53:13.474Z,2.93
2022-12-26T03:56:04.006Z,2.77
2022-12-26T03:58:53.400Z,2.60
2022-12-26T04:01:40.784Z,2.57
2022-12-26T04:04:27.998Z,3.03
2022-12-26T04:07:15.613Z,2.60
2022-12-26T04:10:06.155Z,2.80
2022-12-26T04:12:52.477Z,3.40
2022-12-26T04:15:40.363Z,3.10
2022-12-26T04:18:30.587Z,2.93
2022-12-26T04:21:07.815Z,3.10
2022-12-26T04:23:58.869Z,3.00
2022-12-26T04:26:49.548Z,2.63
2022-12-26T04:29:34.978Z,2.80
2022-12-26T04:32:22.395Z,2.93
2022-12-26T04:35:12.118Z,3.07
2022-12-26T04:38:00.539Z,2.40
2022-12-26T04:40:49.644Z,2.63
2022-12-26T04:43:48.570Z,2.80
2022-12-26T04:46:18.997Z,2.80
2022-12-26T04:49:05.601Z,3.10
2022-12-26T04:51:33.172Z,3.07
2022-12-26T04:54:00.818Z,2.67
2022-12-26T04:56:28.419Z,2.63
2022-12-26T04:58:57.487Z,2.93
2022-12-26T05:01:42.690Z,3.20
2022-12-26T05:04:31.231Z,2.30
2022-12-26T05:07:17.023Z,2.90
2022-12-26T05:09:44.687Z,2.27
2022-12-26T05:12:12.400Z,2.50
2022-12-26T05:14:41.532Z,3.10
2022-12-26T05:17:29.431Z,2.73
2022-12-26T05:20:10.981Z,2.50
2022-12-26T05:22:58.505Z,2.50
2022-12-26T05:25:44.168Z,2.80
2022-12-26T05:28:30.713Z,2.53
2022-12-26T05:31:00.006Z,2.73
2022-12-26T05:33:45.079Z,2.47
2022-12-26T05:36:13.395Z,2.93
2022-12-26T05:38:41.204Z,2.33
2022-12-26T05:41:08.965Z,3.00
2022-12-26T05:43:36.909Z,2.70
2022-12-26T05:46:06.275Z,2.70
2022-12-26T05:48:33.951Z,2.67
2022-12-26T05:51:02.591Z,2.63
2022-12-26T05:53:30.948Z,3.20
2022-12-26T05:56:03.876Z,2.20
2022-12-26T05:58:31.573Z,2.50
2022-12-26T06:01:08.607Z,2.57
2022-12-26T06:03:36.607Z,2.70
2022-12-26T06:06:04.683Z,2.60
2022-12-26T06:08:32.426Z,2.90
2022-12-26T06:11:00.295Z,2.50
2022-12-26T06:13:27.923Z,2.70
2022-12-26T06:15:55.822Z,2.73
2022-12-26T06:18:24.862Z,2.60
2022-12-26T06:20:52.609Z,2.43
2022-12-26T06:23:20.266Z,2.40
2022-12-26T06:25:54.792Z,2.53
2022-12-26T06:28:22.749Z,2.67
2022-12-26T06:30:50.759Z,2.23
2022-12-26T06:33:18.790Z,2.87
2022-12-26T06:35:47.862Z,2.77
2022-12-26T06:38:15.507Z,2.57
2022-12-26T06:40:43.700Z,2.70
2022-12-26T06:43:11.293Z,2.40
2022-12-26T06:45:39.061Z,2.17
2022-12-26T06:48:07.193Z,2.43
2022-12-26T06:50:37.112Z,2.53
2022-12-26T06:53:06.134Z,3.40
2022-12-26T06:55:33.691Z,2.27
2022-12-26T06:58:01.273Z,2.17
2022-12-26T07:00:30.187Z,2.60
2022-12-26T07:02:58.077Z,2.33
2022-12-26T07:05:25.721Z,3.13
2022-12-26T07:07:54.488Z,2.67
2022-12-26T07:10:23.417Z,2.53
2022-12-26T07:12:51.072Z,2.40
2022-12-26T07:15:18.843Z,2.23
2022-12-26T07:17:46.430Z,2.40
2022-12-26T07:20:14.136Z,2.30
2022-12-26T07:22:41.769Z,2.53
2022-12-26T07:25:10.262Z,2.53
2022-12-26T07:27:39.409Z,2.77
2022-12-26T07:30:08.428Z,2.50
2022-12-26T07:32:36.080Z,2.90
2022-12-26T07:35:03.785Z,2.57
2022-12-26T07:37:31.434Z,3.10
2022-12-26T07:39:59.564Z,3.23
2022-12-26T07:42:29.726Z,2.53
2022-12-26T07:44:58.828Z,2.47
2022-12-26T07:47:26.491Z,2.77
2022-12-26T07:49:54.125Z,3.27
2022-12-26T07:52:23.138Z,2.73
2022-12-26T07:54:50.830Z,3.10
2022-12-26T08:00:09.347Z,2.83
2022-12-26T08:02:37.263Z,2.90
2022-12-26T08:05:05.488Z,2.60
2022-12-26T08:07:33.179Z,2.67
2022-12-26T08:10:01.063Z,3.47
2022-12-26T08:12:28.791Z,2.13
2022-12-26T08:14:56.444Z,2.60
2022-12-26T08:17:25.497Z,2.03
2022-12-26T08:19:53.206Z,2.30
2022-12-26T08:22:20.868Z,2.60
2022-12-26T08:24:48.459Z,2.60
2022-12-26T08:27:16.676Z,2.33
2022-12-26T08:29:44.315Z,2.50
2022-12-26T08:32:11.916Z,2.07
2022-12-26T08:34:40.937Z,2.10
2022-12-26T08:37:08.978Z,2.30
2022-12-26T08:39:36.729Z,2.30
2022-12-26T08:42:04.575Z,2.37
2022-12-26T08:44:32.304Z,2.20
2022-12-26T08:46:59.901Z,2.20
2022-12-26T08:49:27.474Z,2.13
2022-12-26T08:51:56.473Z,2.10
2022-12-26T08:54:24.161Z,2.10
2022-12-26T08:56:52.000Z,2.40
2022-12-26T08:59:19.822Z,1.97
2022-12-26T09:01:47.559Z,1.70
2022-12-26T09:04:15.527Z,1.80
2022-12-26T09:06:43.146Z,2.00
2022-12-26T09:09:13.359Z,1.73
2022-12-26T09:11:41.957Z,1.80
2022-12-26T09:14:09.950Z,1.87
2022-12-26T09:16:49.180Z,1.80
2022-12-26T09:19:18.426Z,2.23
2022-12-26T09:21:46.797Z,2.23
2022-12-26T09:24:17.164Z,2.00
2022-12-26T09:26:45.309Z,1.70
2022-12-26T09:29:13.975Z,1.50
2022-12-26T09:31:41.738Z,1.73
2022-12-26T09:34:09.583Z,1.70
2022-12-26T09:36:38.916Z,1.43
2022-12-26T09:39:07.120Z,1.87
2022-12-26T09:41:48.234Z,1.30
2022-12-26T09:44:19.077Z,2.50
2022-12-26T09:46:52.410Z,1.90
2022-12-26T09:49:21.897Z,1.63
2022-12-26T09:51:52.252Z,1.90
2022-12-26T09:54:26.523Z,2.13
2022-12-26T09:57:04.636Z,1.97
2022-12-26T09:59:42.681Z,1.77
2022-12-26T10:02:18.090Z,1.40
2022-12-26T10:04:46.046Z,1.77
2022-12-26T10:07:18.765Z,1.43
2022-12-26T10:09:54.221Z,1.57
2022-12-26T10:12:47.429Z,1.20
2022-12-26T10:15:27.307Z,1.40
2022-12-26T10:18:01.276Z,1.53
2022-12-26T10:20:33.649Z,1.67
2022-12-26T10:23:25.879Z,1.47
2022-12-26T10:25:57.655Z,1.17
2022-12-26T10:28:34.012Z,1.47
2022-12-26T10:31:04.164Z,1.50
2022-12-26T10:33:39.977Z,1.50
2022-12-26T10:36:13.910Z,1.60
2022-12-26T10:38:43.496Z,1.80
2022-12-26T10:41:15.909Z,1.60
2022-12-26T10:43:45.715Z,1.50
2022-12-26T10:46:26.684Z,1.60
2022-12-26T10:48:54.706Z,1.60
2022-12-26T10:51:22.432Z,1.50
2022-12-26T10:53:52.968Z,1.83
2022-12-26T10:56:21.228Z,1.60
2022-12-26T10:59:00.506Z,1.60
2022-12-26T11:01:34.506Z,1.67
2022-12-26T11:04:03.651Z,1.80
2022-12-26T11:06:33.906Z,1.43
2022-12-26T11:09:01.693Z,1.60
2022-12-26T11:11:46.050Z,1.30
2022-12-26T11:14:34.800Z,1.60
2022-12-26T11:17:05.545Z,1.40
2022-12-26T11:19:35.415Z,1.30
2022-12-26T11:22:21.007Z,1.30
2022-12-26T11:25:04.246Z,1.27
2022-12-26T11:27:32.016Z,1.40
2022-12-26T11:30:22.111Z,1.30
2022-12-26T11:32:52.104Z,1.30
2022-12-26T11:35:21.515Z,1.30
2022-12-26T11:37:52.811Z,0.90
2022-12-26T11:40:24.478Z,1.30
2022-12-26T11:42:58.138Z,1.00
2022-12-26T11:45:32.794Z,1.57
2022-12-26T11:48:03.636Z,1.10
2022-12-26T11:50:32.136Z,1.13
2022-12-26T11:53:08.048Z,1.30
2022-12-26T11:55:38.062Z,1.20
2022-12-26T11:58:19.074Z,1.07
2022-12-26T12:01:08.082Z,1.20
2022-12-26T12:03:37.296Z,1.10
2022-12-26T12:09:56.241Z,2.13
2022-12-26T12:12:28.259Z,2.50
2022-12-26T12:15:01.567Z,4.63
2022-12-26T12:17:35.599Z,4.53
2022-12-26T12:20:25.206Z,2.20
2022-12-26T12:23:12.062Z,1.67
2022-12-26T12:25:51.456Z,2.07
2022-12-26T12:28:31.653Z,2.00
2022-12-26T12:31:05.098Z,1.67
2022-12-26T12:33:42.603Z,1.60
2022-12-26T12:36:11.675Z,1.30
2022-12-26T12:38:56.674Z,1.20
2022-12-26T12:41:38.843Z,1.10
2022-12-26T12:44:12.826Z,1.30
2022-12-26T12:46:47.305Z,1.30
2022-12-26T12:49:25.238Z,1.00
2022-12-26T12:51:59.888Z,1.40
2022-12-26T12:54:59.915Z,1.17
2022-12-26T12:57:31.486Z,1.27
2022-12-26T13:00:12.029Z,1.30
2022-12-26T13:02:43.740Z,1.47
2022-12-26T13:05:19.868Z,0.93
2022-12-26T13:07:50.915Z,1.07
2022-12-26T13:10:23.017Z,0.93
2022-12-26T13:12:51.852Z,1.17
2022-12-26T13:15:28.488Z,1.10
2022-12-26T13:18:00.935Z,1.00
2022-12-26T13:20:35.859Z,1.50
2022-12-26T13:23:24.893Z,1.30
2022-12-26T13:26:05.867Z,1.00
2022-12-26T13:28:37.521Z,1.33
2022-12-26T13:31:05.309Z,1.40
2022-12-26T13:33:33.395Z,1.20
2022-12-26T13:36:04.539Z,1.20
2022-12-26T13:39:05.829Z,1.00
2022-12-26T13:41:50.957Z,1.43
2022-12-26T13:44:27.269Z,1.27
2022-12-26T13:46:56.599Z,1.43
2022-12-26T13:49:30.917Z,1.10
2022-12-26T13:52:02.049Z,1.03
2022-12-26T13:54:30.592Z,1.17
2022-12-26T13:57:26.669Z,0.80
2022-12-26T14:00:23.470Z,1.17
2022-12-26T14:03:26.114Z,1.13
2022-12-26T14:06:30.059Z,1.30
2022-12-26T14:09:21.690Z,0.77
2022-12-26T14:12:15.117Z,0.90
2022-12-26T14:14:54.587Z,1.10
2022-12-26T14:17:32.012Z,1.17
2022-12-26T14:20:06.718Z,0.83
2022-12-26T14:22:42.270Z,1.20
2022-12-26T14:25:19.126Z,1.17
2022-12-26T14:27:52.151Z,1.20
2022-12-26T14:30:25.735Z,1.33
2022-12-26T14:33:08.039Z,1.30
2022-12-26T14:35:40.218Z,1.10
2022-12-26T14:38:22.194Z,1.40
2022-12-26T14:41:04.632Z,1.10
2022-12-26T14:43:38.240Z,1.30
2022-12-26T14:46:30.720Z,1.50
2022-12-26T14:49:00.368Z,1.60
2022-12-26T14:51:40.307Z,1.53
2022-12-26T14:54:38.918Z,1.43
2022-12-26T14:57:51.235Z,1.30
2022-12-26T15:00:34.732Z,1.33
2022-12-26T15:03:34.497Z,1.40
2022-12-26T15:06:39.616Z,1.50
2022-12-26T15:09:40.186Z,1.37
2022-12-26T15:12:29.520Z,1.23
2022-12-26T15:15:33.998Z,0.90
2022-12-26T15:18:26.024Z,0.70
2022-12-26T15:21:19.225Z,0.30
2022-12-26T15:24:20.445Z,0.80
2022-12-26T15:27:10.227Z,0.50
2022-12-26T15:29:50.214Z,0.40
2022-12-26T15:32:21.940Z,0.37
2022-12-26T15:34:57.090Z,0.30
2022-12-26T15:37:34.716Z,0.50
2022-12-26T15:40:10.386Z,0.60
2022-12-26T15:42:49.309Z,0.40
2022-12-26T15:45:28.622Z,0.40
2022-12-26T15:48:03.287Z,0.57
2022-12-26T15:50:33.833Z,0.40
2022-12-26T15:53:12.192Z,0.40
2022-12-26T15:56:02.258Z,0.30
2022-12-26T15:58:45.781Z,0.40
2022-12-26T16:01:14.007Z,0.50
2022-12-26T16:03:46.584Z,0.43
2022-12-26T16:06:30.528Z,0.53
2022-12-26T16:09:16.310Z,0.60
2022-12-26T16:11:50.513Z,0.60
2022-12-26T16:14:27.746Z,0.77
2022-12-26T16:16:55.719Z,1.23
2022-12-26T16:19:28.698Z,0.50
2022-12-26T16:22:15.615Z,0.53
2022-12-26T16:24:44.203Z,0.53
2022-12-26T16:27:16.611Z,0.50
2022-12-26T16:29:47.382Z,0.57
2022-12-26T16:32:18.313Z,0.63
2022-12-26T16:34:47.517Z,0.50
2022-12-26T16:37:19.969Z,1.10
2022-12-26T16:40:05.941Z,0.77
2022-12-26T16:42:33.996Z,0.60
2022-12-26T16:45:02.012Z,0.53
2022-12-26T16:47:32.203Z,0.60
2022-12-26T16:50:01.355Z,0.50
2022-12-26T16:52:33.232Z,0.40
2022-12-26T16:55:24.987Z,0.60
2022-12-26T16:57:53.477Z,0.37
2022-12-26T17:00:21.932Z,0.20
2022-12-26T17:02:51.889Z,0.57
2022-12-26T17:05:22.912Z,0.90
2022-12-26T17:07:52.161Z,0.50
2022-12-26T17:10:20.953Z,1.10
2022-12-26T17:12:48.984Z,0.90
2022-12-26T17:15:21.647Z,0.50
2022-12-26T17:17:49.552Z,0.53
2022-12-26T17:20:38.201Z,6.23
2022-12-26T17:23:37.059Z,1.30
2022-12-26T17:26:23.570Z,2.03
2022-12-26T17:28:51.859Z,2.90
2022-12-26T17:31:24.612Z,2.00
2022-12-26T17:33:56.102Z,3.30
2022-12-26T17:39:21.481Z,1.60
2022-12-26T17:41:52.358Z,2.00
2022-12-26T17:44:37.287Z,2.30
2022-12-26T17:47:15.154Z,2.00
2022-12-26T17:49:42.904Z,1.83
2022-12-26T17:52:12.364Z,1.03
2022-12-26T17:54:40.265Z,1.10
2022-12-26T17:57:09.436Z,1.20
2022-12-26T17:59:37.128Z,1.57
2022-12-26T18:02:05.219Z,1.53
2022-12-26T18:04:33.167Z,1.50
2022-12-26T18:07:01.177Z,1.60
2022-12-26T18:09:30.852Z,1.50
2022-12-26T18:11:58.732Z,1.60
2022-12-26T18:14:26.562Z,1.37
2022-12-26T18:16:54.335Z,1.30
2022-12-26T18:19:22.186Z,1.40
2022-12-26T18:21:49.960Z,1.20
2022-12-26T18:24:17.740Z,0.50
2022-12-26T18:26:46.774Z,0.73
2022-12-26T18:29:14.466Z,0.40
2022-12-26T18:31:42.201Z,0.90
2022-12-26T18:34:09.913Z,0.70
2022-12-26T18:36:41.080Z,0.67
2022-12-26T18:39:08.822Z,0.80
2022-12-26T18:41:36.837Z,0.97
2022-12-26T18:44:06.035Z,0.80
2022-12-26T18:46:33.719Z,0.90
2022-12-26T18:49:01.427Z,0.70
2022-12-26T18:51:29.108Z,0.80
2022-12-26T18:53:56.835Z,0.83
2022-12-26T18:56:24.765Z,0.73
2022-12-26T18:58:57.831Z,0.70
2022-12-26T19:01:27.422Z,0.80
2022-12-26T19:03:55.495Z,0.80
2022-12-26T19:06:25.367Z,0.60
2022-12-26T19:08:53.213Z,0.70
2022-12-26T19:11:21.281Z,0.77
2022-12-26T19:13:49.026Z,0.80
2022-12-26T19:16:17.165Z,0.83
2022-12-26T19:18:46.378Z,0.83
2022-12-26T19:21:15.835Z,0.83
2022-12-26T19:23:44.256Z,0.80
2022-12-26T19:26:12.843Z,0.80
2022-12-26T19:28:40.758Z,0.87
2022-12-26T19:31:09.278Z,0.93
2022-12-26T19:33:37.010Z,1.00
2022-12-26T19:36:07.075Z,1.23
2022-12-26T19:38:34.894Z,0.90
2022-12-26T19:41:03.683Z,0.87
2022-12-26T19:43:31.745Z,0.90
2022-12-26T19:46:00.808Z,0.60
2022-12-26T19:48:28.608Z,0.73
2022-12-26T19:50:56.286Z,0.70
2022-12-26T19:53:25.365Z,0.60
2022-12-26T19:55:53.235Z,0.97
2022-12-26T19:58:20.994Z,1.20
2022-12-26T20:00:49.493Z,0.80
2022-12-26T20:03:17.601Z,0.77
2022-12-26T20:05:45.497Z,0.90
2022-12-26T20:08:13.978Z,0.80
2022-12-26T20:10:43.377Z,1.17
2022-12-26T20:13:11.039Z,1.00
2022-12-26T20:15:38.706Z,1.10
2022-12-26T20:18:06.467Z,0.80
2022-12-26T20:20:34.272Z,1.00
2022-12-26T20:23:01.916Z,1.00
2022-12-26T20:25:29.720Z,1.13
2022-12-26T20:27:58.769Z,1.10
2022-12-26T20:30:26.554Z,1.20
2022-12-26T20:32:54.289Z,1.20
2022-12-26T20:35:22.002Z,1.07
2022-12-26T20:37:49.662Z,0.70
2022-12-26T20:40:17.574Z,0.83
2022-12-26T20:42:45.388Z,1.33
2022-12-26T20:45:14.477Z,0.90
2022-12-26T20:47:42.138Z,0.80
2022-12-26T20:50:10.472Z,1.03
2022-12-26T20:52:38.264Z,1.07
2022-12-26T20:55:06.624Z,0.83
2022-12-26T20:57:34.318Z,1.10
2022-12-26T21:00:02.086Z,1.10
2022-12-26T21:02:34.431Z,0.97
2022-12-26T21:05:05.778Z,1.40
2022-12-26T21:07:33.888Z,1.30
2022-12-26T21:10:01.804Z,1.10
2022-12-26T21:12:29.609Z,1.37
2022-12-26T21:14:57.410Z,0.93
2022-12-26T21:17:25.128Z,1.17
2022-12-26T21:19:54.358Z,1.77
2022-12-26T21:22:23.505Z,1.20
2022-12-26T21:24:51.203Z,1.13
2022-12-26T21:27:18.975Z,1.53
2022-12-26T21:29:46.707Z,1.40
2022-12-26T21:32:14.340Z,1.10
2022-12-26T21:34:42.127Z,1.43
2022-12-26T21:37:28.681Z,1.50
2022-12-26T21:39:56.534Z,1.60
2022-12-26T21:42:24.228Z,1.60
2022-12-26T21:44:52.080Z,1.20
2022-12-26T21:47:19.864Z,1.40
2022-12-26T21:49:47.737Z,1.33
2022-12-26T21:52:16.931Z,1.17
2022-12-26T21:55:02.509Z,1.50
2022-12-26T21:57:31.476Z,1.67
2022-12-26T21:59:59.830Z,1.50
2022-12-26T22:02:46.470Z,1.40
2022-12-26T22:05:14.308Z,1.70
2022-12-26T22:07:43.484Z,2.10
2022-12-26T22:10:33.408Z,1.50
2022-12-26T22:13:00.417Z,1.60
2022-12-26T22:15:45.862Z,2.10
2022-12-26T22:18:13.639Z,1.53
2022-12-26T22:20:41.412Z,2.23
2022-12-26T22:23:10.549Z,1.60
2022-12-26T22:25:38.412Z,1.83
2022-12-26T22:28:06.313Z,1.70
2022-12-26T22:30:33.931Z,2.03
2022-12-26T22:33:01.676Z,2.17
2022-12-26T22:35:29.424Z,1.90
2022-12-26T22:37:57.540Z,2.30
2022-12-26T22:40:26.512Z,1.87
2022-12-26T22:42:54.285Z,2.40
2022-12-26T22:45:23.246Z,2.13
2022-12-26T22:47:50.783Z,1.87
2022-12-26T22:50:20.456Z,2.13
2022-12-26T22:52:48.291Z,2.40
2022-12-26T22:55:16.027Z,1.90
2022-12-26T22:57:51.194Z,3.03
2022-12-26T23:00:20.862Z,2.50
2022-12-26T23:02:48.563Z,2.40
2022-12-26T23:05:21.738Z,2.07
2022-12-26T23:07:55.240Z,2.00
2022-12-26T23:10:26.017Z,2.43
2022-12-26T23:12:55.676Z,2.67
2022-12-26T23:15:25.557Z,2.10
2022-12-26T23:18:14.784Z,2.00
2022-12-26T23:21:00.222Z,1.87
2022-12-26T23:23:28.431Z,2.30
2022-12-26T23:25:56.240Z,1.53
2022-12-26T23:28:42.878Z,2.07
2022-12-26T23:31:10.596Z,2.07
2022-12-26T23:33:38.371Z,1.80
2022-12-26T23:36:06.567Z,1.70
2022-12-26T23:38:34.227Z,1.50
2022-12-26T23:41:01.871Z,1.43
2022-12-26T23:43:33.463Z,1.50
2022-12-26T23:46:01.531Z,1.43
2022-12-26T23:48:29.199Z,1.77
2022-12-26T23:51:03.680Z,1.20
2022-12-26T23:53:34.088Z,1.47
2022-12-26T23:56:01.745Z,1.30
2022-12-26T23:58:30.806Z,1.10
